Eagle River, WI

7:38 PM CST on March 02, 2015 (GMT -0600)
Kings Land O'Lakes | Change Station
CLOSE
Current Station
Airport
Location: Land O' Lakes,
Elevation: 1706 ft
Nearby Weather Stations
Active Advisory: Winter Weather Advisory

Elev 1706 ft 46.15 °N, 89.21 °W | Updated 23 minutes ago

Clear
Clear
13 °F
Feels Like 7 °F
N
4
Wind Variable Wind from South

Today
High -- | Low -- °F
--% Chance of Precip.
Yesterday
High -- | Low -- °F
Precip. -- in
6:34 AM 5:44 PM
Waxing Gibbous, 94% visible
Pressure 30.17 in
Visibility 10.0 miles
Clouds Clear
Windchill 7 °F
Dew Point -1 °F
Humidity 54%
Rainfall 0.00 in
Snow Depth Not available.
UV 0 out of 12
Pollen .40 out of 12
Air Quality Not available.
Flu Activity Not available.
METAR KLNL 030115Z AUTO 18003KT 10SM CLR M11/M18 A3017 RMK AO2 T11061182

More Conditions Fewer Conditions

Pressure 30.17 in
Visibility 10.0 miles
Clouds Clear
Windchill 7 °F
Dew Point -1 °F
Humidity 54%
Rainfall 0.00 in
Snow Depth Not available.
UV 0 out of 12
Pollen .40 out of 12
Air Quality Not available.
Flu Activity Not available.
METAR KLNL 030115Z AUTO 18003KT 10SM CLR M11/M18 A3017 RMK AO2 T11061182

More Conditions Fewer Conditions

10-Day Weather Forecast

Almanac

Astronomy

Mar. 02, 2015 Rise Set
Actual Time
Civil Twilight
Nautical Twilight
Astronomical Twilight
Moon
Length of Visible Light
Length of Day
Tomorrow will be .
, % of the Moon is Illuminated

Today's Extremes

State Highs State Lows

Community

WunderPhotos

Upload Photos

1,802,021 photos uploaded!

WunderBlogs® & News

Nearby

Air Quality

  Air Quality AQ Index Pollutant
Not available.

Snow Depth

Station Depth Elevation

Earthquake Activity

City Distance Mag. Time & Date
Minimum magnitude displayed is 2.5.

Coastal Water Temperatures

Place Temperature

Nearby Weather Stations

Winter Weather Advisory
Statement as of 3:26 PM CST on March 02, 2015

... Winter Weather Advisory remains in effect from 3 am to 6 PM
CST Tuesday...

* snow is expected to develop late tonight... then increase in
intensity Tuesday morning. The snow is expected to taper off
later in the afternoon.

* Snow accumulations of 3 to 4 inches are anticipated.

* Travel conditions may become hazardous due to snow covered roads
and reduced visibility. Travel will likely be impacted for the
morning commute... especially across central Wisconsin and the
Fox Valley.

Precautionary/preparedness actions...

A Winter Weather Advisory for snow means that periods of snow
will cause some travel difficulties. Be prepared for snow covered
roads and limited visibilities... and use caution while driving.
The latest Wisconsin Road conditions can be obtained by calling
511.